Flight Track Log - Related Links

Times and Time Zones

All times are in EST time to prevent confusion due to time zone crossing. See the CHH7124 flight status page for this flight to view local times or setup timezone preferences in your user account.

Time Position Orientation Groundspeed Altitude Reporting Facility
EST Latitude Longitude Course Direction KTS MPH feet Rate Location/Type
Sat 09:18:00 AM 44.4909 129.4438 250° West  Level Estimated
Sat 09:19:00 AM 44.4576 129.3188 250° West  Level Estimated
Sat 09:20:00 AM 44.4241 129.1940 249° West  Level Estimated
Sat 09:21:00 AM 44.3905 129.0693 249° West  Level Estimated
Sat 09:22:00 AM 44.3568 128.9447 249° West  Level Estimated
Sat 09:23:00 AM 44.3229 128.8203 249° West  Level Estimated
Sat 09:24:00 AM 44.2890 128.6960 249° West  Level Estimated
Sat 09:25:00 AM 44.2548 128.5719 249° West  Level Estimated
Sat 09:26:00 AM 44.2206 128.4479 249° West  Level Estimated
Sat 09:27:00 AM 44.1862 128.3240 249° West  Level Estimated
Sat 09:28:00 AM 44.1516 128.2003 249° West  Level Estimated
Sat 09:29:00 AM 44.1170 128.0768 249° West  Level Estimated
Sat 09:30:00 AM 44.0822 127.9533 249° West  Level Estimated
Sat 09:31:00 AM 44.0472 127.8301 249° West  Level Estimated
Sat 09:32:00 AM 44.0122 127.7070 248° West  Level Estimated
Sat 09:33:00 AM 43.9770 127.5840 248° West  Level Estimated
Sat 09:34:00 AM 43.9417 127.4612 248° West  Level Estimated
Sat 09:35:00 AM 43.9062 127.3385 248° West  Level Estimated
Sat 09:36:00 AM 43.8706 127.2159 248° West  Level Estimated
Sat 09:37:00 AM 43.8349 127.0935 248° West  Level Estimated
Sat 09:38:00 AM 43.7991 126.9713 248° West  Level Estimated
Sat 09:39:00 AM 43.7631 126.8492 248° West  Level Estimated
Sat 09:40:00 AM 43.7270 126.7272 248° West  Level Estimated
Sat 09:41:00 AM 43.6907 126.6055 248° West  Level Estimated
Sat 09:42:00 AM 43.6544 126.4838 248° West  Level Estimated
Sat 09:43:00 AM 43.6179 126.3623 248° West  Level Estimated
Sat 09:44:00 AM 43.5812 126.2409 247° West  Level Estimated
Sat 09:45:00 AM 43.5445 126.1197 247° West  Level Estimated
Sat 09:46:00 AM 43.5076 125.9986 247° West  Level Estimated
Sat 09:47:00 AM 43.4706 125.8777 247° West  Level Estimated
Sat 09:48:00 AM 43.4335 125.7570 247° West  Level Estimated
Sat 09:49:00 AM 43.3962 125.6363 247° West  Level Estimated
Sat 09:50:00 AM 43.3588 125.5159 247° West  Level Estimated
Sat 09:51:00 AM 43.3213 125.3956 247° West  Level Estimated
Sat 09:52:00 AM 43.2836 125.2754 247° West  Level Estimated
Sat 09:53:00 AM 43.2459 125.1553 247° West  Level Estimated
Sat 09:54:00 AM 43.2080 125.0355 247° West  Level Estimated
Sat 09:55:00 AM 43.1700 124.9157 247° West  Level Estimated
Sat 09:56:00 AM 43.1318 124.7962 246° West  Level Estimated
Sat 09:57:00 AM 43.0936 124.6767 246° West  Level Estimated
Sat 09:58:00 AM 43.0552 124.5574 246° West  Level Estimated
Sat 09:59:00 AM 43.0167 124.4383 246° West  Level Estimated
Sat 10:00:00 AM 42.9780 124.3193 246° West  Level Estimated
Sat 10:01:00 AM 42.9393 124.2005 246° West  Level Estimated
Sat 10:02:00 AM 42.9004 124.0818 246° West  Level Estimated
Sat 10:03:00 AM 42.8614 123.9633 246° West  Level Estimated
Sat 10:04:00 AM 42.8222 123.8449 246° West  Level Estimated
Sat 10:05:00 AM 42.7830 123.7267 246° West  Level Estimated
Sat 10:06:00 AM 42.7436 123.6086 246° West  Level Estimated
Sat 10:07:00 AM 42.7041 123.4907 246° West  Level Estimated
Sat 10:08:00 AM 42.6645 123.3729 245° Southwest  Level Estimated
Sat 10:09:00 AM 42.6248 123.2553 245° Southwest  Level Estimated
Sat 10:10:00 AM 42.5849 123.1378 245° Southwest  Level Estimated
Sat 10:11:00 AM 42.5450 123.0205 245° Southwest  Level Estimated
Sat 10:12:00 AM 42.5049 122.9033 245° Southwest  Level Estimated
Sat 10:13:00 AM 42.4647 122.7862 245° Southwest  Level Estimated
Sat 10:14:00 AM 42.4243 122.6694 245° Southwest  Level Estimated
Sat 10:15:00 AM 42.3839 122.5526 245° Southwest  Level Estimated
Sat 10:16:00 AM 42.3433 122.4361 245° Southwest  Level Estimated
Sat 10:17:00 AM 42.3026 122.3196 245° Southwest  Level Estimated
Sat 10:18:00 AM 42.2618 122.2033 245° Southwest  Level Estimated
Sat 10:19:00 AM 42.2209 122.0872 245° Southwest  Level Estimated
Sat 10:20:00 AM 42.1799 121.9713 245° Southwest  Level Estimated
Sat 10:21:00 AM 42.1387 121.8554 244° Southwest  Level Estimated
Sat 10:22:00 AM 42.0975 121.7398 244° Southwest  Level Estimated
Sat 10:23:00 AM 42.0561 121.6242 244° Southwest  Level Estimated
Sat 10:24:00 AM 42.0146 121.5089 244° Southwest  Level Estimated
Sat 10:25:00 AM 41.9729 121.3936 244° Southwest  Level Estimated
Sat 10:26:00 AM 41.9312 121.2786 244° Southwest  Level Estimated
Sat 10:27:00 AM 41.8894 121.1637 244° Southwest  Level Estimated
Sat 10:28:00 AM 41.8474 121.0489 244° Southwest  Level Estimated
Sat 10:29:00 AM 41.8053 120.9343 244° Southwest  Level Estimated
Sat 10:30:00 AM 41.7631 120.8198 244° Southwest  Level Estimated
Sat 10:31:00 AM 41.7208 120.7055 244° Southwest  Level Estimated
Sat 10:32:00 AM 41.6784 120.5913 244° Southwest  Level Estimated
Sat 10:33:00 AM 41.6359 120.4773 244° Southwest  Level Estimated
Sat 10:34:00 AM 41.5932 120.3634 243° Southwest  Level Estimated
Sat 10:35:00 AM 41.5505 120.2497 243° Southwest  Level Estimated
Sat 10:36:00 AM 41.5076 120.1361 243° Southwest  Level Estimated
Sat 10:37:00 AM 41.4646 120.0227 243° Southwest  Level Estimated
Sat 10:38:00 AM 41.4216 119.9095 243° Southwest  Level Estimated
Sat 10:39:00 AM 41.3783 119.7964 243° Southwest  Level Estimated
Sat 10:40:00 AM 41.3350 119.6834 243° Southwest  Level Estimated
Sat 10:41:00 AM 41.2916 119.5706 243° Southwest  Level Estimated
Sat 10:42:00 AM 41.2481 119.4579 243° Southwest  Level Estimated
Sat 10:43:00 AM 41.2044 119.3454 243° Southwest  Level Estimated
Sat 10:44:00 AM 41.1607 119.2331 243° Southwest  Level Estimated
Sat 10:45:00 AM 41.1168 119.1209 243° Southwest  Level Estimated
Sat 10:46:00 AM 41.0729 119.0088 243° Southwest  Level Estimated
Sat 10:47:00 AM 41.0288 118.8969 242° Southwest  Level Estimated
Sat 10:48:00 AM 40.9846 118.7851 242° Southwest  Level Estimated
Sat 10:49:00 AM 40.9403 118.6735 242° Southwest  Level Estimated
Sat 10:50:00 AM 40.8959 118.5621 242° Southwest  Level Estimated
Sat 10:51:00 AM 40.8514 118.4508 242° Southwest  Level Estimated
Sat 10:52:00 AM 40.8068 118.3396 242° Southwest  Level Estimated
Sat 10:53:00 AM 40.7621 118.2286 242° Southwest  Level Estimated
Sat 10:54:00 AM 40.7173 118.1177 242° Southwest  Level Estimated
Sat 10:55:00 AM 40.6723 118.0070 242° Southwest  Level Estimated
Sat 10:56:00 AM 40.6273 117.8964 242° Southwest  Level Estimated
Sat 10:57:00 AM 40.5821 117.7860 242° Southwest  Level Estimated
Sat 10:58:00 AM 40.5369 117.6757 242° Southwest  Level Estimated
Sat 10:59:00 AM 40.4915 117.5656 242° Southwest  Level Estimated
Sat 11:00:00 AM 40.4461 117.4557 242° Southwest  Level Estimated
Sat 11:01:00 AM 40.4005 117.3458 241° Southwest  Level Estimated
Sat 11:02:00 AM 40.3549 117.2362 241° Southwest  Level Estimated
Sat 11:03:00 AM 40.3091 117.1266 241° Southwest  Level Estimated
Sat 11:04:00 AM 40.2632 117.0173 241° Southwest  Level Estimated
Sat 11:05:00 AM 40.2172 116.9080 241° Southwest  Level Estimated
Sat 11:06:00 AM 40.1712 116.7990 241° Southwest  Level Estimated
Sat 11:07:00 AM 40.1250 116.6900 241° Southwest  Level Estimated
Sat 11:08:00 AM 40.0801 116.5846 241° Southwest  Level Estimated
Sat 11:09:00 AM 40.0801 116.5846 288° West  Level Estimated
Sat 11:10:00 AM 40.0801 116.5846 288° West  Level Estimated
Sat 11:11:00 AM 40.0801 116.5846 288° West  Level Estimated
Sat 11:12:00 AM 40.0801 116.5846 288° West  Level Estimated
Sat 11:13:00 AM 40.0801 116.5846 288° West  Level Estimated
Sat 11:14:00 AM 40.0801 116.5846 288° West  Level Estimated
Sat 11:15:00 AM 40.0801 116.5846 288° West  Level Estimated
Sat 11:16:00 AM 40.0801 116.5846 288° West  Level Estimated
Sat 11:17:00 AM 40.0801 116.5846 288° West  Level Estimated
Sat 11:18:00 AM 40.0801 116.5846 288° West  Level Estimated
Sat 11:19:00 AM 40.0801 116.5846 288° West  Level Estimated

Login

Don't have an account? Register now (free) for customized features, flight alerts, and more!